sensor_id;sensor_type;location;lat;lon;timestamp;temperature;humidity
6114;DHT22;3087;48.392;10.836;2024-01-30T00:01:13;0.10;99.90
6114;DHT22;3087;48.392;10.836;2024-01-30T00:03:39;1.40;99.90
6114;DHT22;3087;48.392;10.836;2024-01-30T00:06:04;1.40;99.90
6114;DHT22;3087;48.392;10.836;2024-01-30T00:08:30;1.30;99.90
6114;DHT22;3087;48.392;10.836;2024-01-30T00:10:56;1.30;99.90
6114;DHT22;3087;48.392;10.836;2024-01-30T00:13:21;1.20;99.90
6114;DHT22;3087;48.392;10.836;2024-01-30T00:15:48;1.40;99.90
6114;DHT22;3087;48.392;10.836;2024-01-30T00:18:14;1.30;99.90
6114;DHT22;3087;48.392;10.836;2024-01-30T00:20:40;1.30;99.90
6114;DHT22;3087;48.392;10.836;2024-01-30T00:23:05;1.20;99.90
6114;DHT22;3087;48.392;10.836;2024-01-30T00:25:31;1.10;99.90
6114;DHT22;3087;48.392;10.836;2024-01-30T00:27:58;1.10;99.90
6114;DHT22;3087;48.392;10.836;2024-01-30T00:30:24;1.10;99.90
6114;DHT22;3087;48.392;10.836;2024-01-30T00:32:49;1.10;99.90
6114;DHT22;3087;48.392;10.836;2024-01-30T00:35:15;1.20;99.90
6114;DHT22;3087;48.392;10.836;2024-01-30T00:37:41;1.20;99.90
6114;DHT22;3087;48.392;10.836;2024-01-30T00:40:06;1.10;99.90
6114;DHT22;3087;48.392;10.836;2024-01-30T00:42:32;1.00;99.90
6114;DHT22;3087;48.392;10.836;2024-01-30T00:44:58;1.00;99.90
6114;DHT22;3087;48.392;10.836;2024-01-30T00:47:24;1.00;99.90
6114;DHT22;3087;48.392;10.836;2024-01-30T00:49:49;1.10;99.90
6114;DHT22;3087;48.392;10.836;2024-01-30T00:52:15;1.10;99.90
6114;DHT22;3087;48.392;10.836;2024-01-30T00:54:41;1.20;99.90
6114;DHT22;3087;48.392;10.836;2024-01-30T00:57:07;1.20;99.90
6114;DHT22;3087;48.392;10.836;2024-01-30T00:59:33;1.10;99.90
6114;DHT22;3087;48.392;10.836;2024-01-30T01:01:58;1.10;99.90
6114;DHT22;3087;48.392;10.836;2024-01-30T01:04:24;0.90;99.90
6114;DHT22;3087;48.392;10.836;2024-01-30T01:06:52;0.90;99.90
6114;DHT22;3087;48.392;10.836;2024-01-30T01:09:17;0.80;99.90
6114;DHT22;3087;48.392;10.836;2024-01-30T01:11:43;0.70;99.90
6114;DHT22;3087;48.392;10.836;2024-01-30T01:14:08;0.70;99.90
6114;DHT22;3087;48.392;10.836;2024-01-30T01:16:34;0.70;99.90
6114;DHT22;3087;48.392;10.836;2024-01-30T01:19:00;0.70;99.90
6114;DHT22;3087;48.392;10.836;2024-01-30T01:21:25;0.80;99.90
6114;DHT22;3087;48.392;10.836;2024-01-30T01:23:51;0.80;99.90
6114;DHT22;3087;48.392;10.836;2024-01-30T01:26:17;0.90;99.90
6114;DHT22;3087;48.392;10.836;2024-01-30T01:28:42;0.80;99.90
6114;DHT22;3087;48.392;10.836;2024-01-30T01:31:08;0.80;99.90
6114;DHT22;3087;48.392;10.836;2024-01-30T01:33:34;0.80;99.90
6114;DHT22;3087;48.392;10.836;2024-01-30T01:36:01;0.70;99.90
6114;DHT22;3087;48.392;10.836;2024-01-30T01:38:29;0.70;99.90
6114;DHT22;3087;48.392;10.836;2024-01-30T01:40:55;0.60;99.90
6114;DHT22;3087;48.392;10.836;2024-01-30T01:43:20;0.70;99.90
6114;DHT22;3087;48.392;10.836;2024-01-30T01:45:46;0.60;99.90
6114;DHT22;3087;48.392;10.836;2024-01-30T01:48:12;0.60;99.90
6114;DHT22;3087;48.392;10.836;2024-01-30T01:50:38;0.60;99.90
6114;DHT22;3087;48.392;10.836;2024-01-30T01:53:07;0.60;99.90
6114;DHT22;3087;48.392;10.836;2024-01-30T01:55:33;0.60;99.90
6114;DHT22;3087;48.392;10.836;2024-01-30T01:57:59;0.60;99.90
6114;DHT22;3087;48.392;10.836;2024-01-30T02:00:25;0.60;99.90
6114;DHT22;3087;48.392;10.836;2024-01-30T02:02:51;0.50;99.90
6114;DHT22;3087;48.392;10.836;2024-01-30T02:05:19;0.50;99.90
6114;DHT22;3087;48.392;10.836;2024-01-30T02:07:45;0.40;99.90
6114;DHT22;3087;48.392;10.836;2024-01-30T02:10:11;0.60;99.90
6114;DHT22;3087;48.392;10.836;2024-01-30T02:12:37;0.60;99.90
6114;DHT22;3087;48.392;10.836;2024-01-30T02:15:04;0.60;99.90
6114;DHT22;3087;48.392;10.836;2024-01-30T02:17:30;0.60;99.90
6114;DHT22;3087;48.392;10.836;2024-01-30T02:19:56;0.60;99.90
6114;DHT22;3087;48.392;10.836;2024-01-30T02:22:22;0.60;99.90
6114;DHT22;3087;48.392;10.836;2024-01-30T02:24:49;0.60;99.90
6114;DHT22;3087;48.392;10.836;2024-01-30T02:27:16;0.40;99.90
6114;DHT22;3087;48.392;10.836;2024-01-30T02:29:41;0.30;99.90
6114;DHT22;3087;48.392;10.836;2024-01-30T02:32:07;0.30;99.90
6114;DHT22;3087;48.392;10.836;2024-01-30T02:34:33;0.20;99.90
6114;DHT22;3087;48.392;10.836;2024-01-30T02:36:58;0.20;99.90
6114;DHT22;3087;48.392;10.836;2024-01-30T02:39:24;0.40;99.90
6114;DHT22;3087;48.392;10.836;2024-01-30T02:41:50;0.50;99.90
6114;DHT22;3087;48.392;10.836;2024-01-30T02:44:15;0.70;99.90
6114;DHT22;3087;48.392;10.836;2024-01-30T02:46:41;0.70;99.90
6114;DHT22;3087;48.392;10.836;2024-01-30T02:49:07;0.80;99.90
6114;DHT22;3087;48.392;10.836;2024-01-30T02:51:32;0.90;99.90
6114;DHT22;3087;48.392;10.836;2024-01-30T02:53:58;1.00;99.90
6114;DHT22;3087;48.392;10.836;2024-01-30T02:56:23;0.90;99.90
6114;DHT22;3087;48.392;10.836;2024-01-30T02:58:49;0.80;99.90
6114;DHT22;3087;48.392;10.836;2024-01-30T03:01:14;0.60;99.90
6114;DHT22;3087;48.392;10.836;2024-01-30T03:03:40;0.50;99.90
6114;DHT22;3087;48.392;10.836;2024-01-30T03:06:06;0.50;99.90
6114;DHT22;3087;48.392;10.836;2024-01-30T03:08:32;0.50;99.90
6114;DHT22;3087;48.392;10.836;2024-01-30T03:10:58;0.40;99.90
6114;DHT22;3087;48.392;10.836;2024-01-30T03:13:23;0.30;99.90
6114;DHT22;3087;48.392;10.836;2024-01-30T03:15:50;0.30;99.90
6114;DHT22;3087;48.392;10.836;2024-01-30T03:18:16;0.30;99.90
6114;DHT22;3087;48.392;10.836;2024-01-30T03:20:41;0.20;99.90
6114;DHT22;3087;48.392;10.836;2024-01-30T03:23:07;0.20;99.90
6114;DHT22;3087;48.392;10.836;2024-01-30T03:25:32;0.20;99.90
6114;DHT22;3087;48.392;10.836;2024-01-30T03:27:58;0.30;99.90
6114;DHT22;3087;48.392;10.836;2024-01-30T03:30:23;0.30;99.90
6114;DHT22;3087;48.392;10.836;2024-01-30T03:32:49;0.30;99.90
6114;DHT22;3087;48.392;10.836;2024-01-30T03:35:15;0.30;99.90
6114;DHT22;3087;48.392;10.836;2024-01-30T03:37:41;0.20;99.90
6114;DHT22;3087;48.392;10.836;2024-01-30T03:40:07;0.20;99.90
6114;DHT22;3087;48.392;10.836;2024-01-30T03:42:33;0.20;99.90
6114;DHT22;3087;48.392;10.836;2024-01-30T03:44:58;0.20;99.90
6114;DHT22;3087;48.392;10.836;2024-01-30T03:47:24;0.20;99.90
6114;DHT22;3087;48.392;10.836;2024-01-30T03:49:49;0.20;99.90
6114;DHT22;3087;48.392;10.836;2024-01-30T03:52:15;0.20;99.90
6114;DHT22;3087;48.392;10.836;2024-01-30T03:54:40;0.20;99.90
6114;DHT22;3087;48.392;10.836;2024-01-30T03:57:06;0.10;99.90
6114;DHT22;3087;48.392;10.836;2024-01-30T03:59:32;0.10;99.90
6114;DHT22;3087;48.392;10.836;2024-01-30T04:01:57;0.20;99.90
6114;DHT22;3087;48.392;10.836;2024-01-30T04:04:23;0.20;99.90
6114;DHT22;3087;48.392;10.836;2024-01-30T04:06:48;-1.00;99.90
6114;DHT22;3087;48.392;10.836;2024-01-30T04:09:14;0.20;99.90
6114;DHT22;3087;48.392;10.836;2024-01-30T04:11:40;0.10;99.90
6114;DHT22;3087;48.392;10.836;2024-01-30T04:14:06;0.10;99.90
6114;DHT22;3087;48.392;10.836;2024-01-30T04:16:31;0.10;99.90
6114;DHT22;3087;48.392;10.836;2024-01-30T04:18:58;0.10;99.90
6114;DHT22;3087;48.392;10.836;2024-01-30T04:21:23;0.10;99.90
6114;DHT22;3087;48.392;10.836;2024-01-30T04:23:51;0.10;99.90
6114;DHT22;3087;48.392;10.836;2024-01-30T04:26:17;0.00;99.90
6114;DHT22;3087;48.392;10.836;2024-01-30T04:28:46;0.00;99.90
6114;DHT22;3087;48.392;10.836;2024-01-30T04:31:12;0.10;99.90
6114;DHT22;3087;48.392;10.836;2024-01-30T04:33:37;0.10;99.90
6114;DHT22;3087;48.392;10.836;2024-01-30T04:36:03;0.10;99.90
6114;DHT22;3087;48.392;10.836;2024-01-30T04:38:29;0.10;99.90
6114;DHT22;3087;48.392;10.836;2024-01-30T04:40:54;0.00;99.90
6114;DHT22;3087;48.392;10.836;2024-01-30T04:43:20;0.00;99.90
6114;DHT22;3087;48.392;10.836;2024-01-30T04:45:46;0.10;99.90
6114;DHT22;3087;48.392;10.836;2024-01-30T04:48:12;0.10;99.90
6114;DHT22;3087;48.392;10.836;2024-01-30T04:50:38;0.20;99.90
6114;DHT22;3087;48.392;10.836;2024-01-30T04:53:03;0.30;99.90
6114;DHT22;3087;48.392;10.836;2024-01-30T04:55:29;0.20;99.90
6114;DHT22;3087;48.392;10.836;2024-01-30T04:57:54;0.20;99.90
6114;DHT22;3087;48.392;10.836;2024-01-30T05:00:20;0.20;99.90
6114;DHT22;3087;48.392;10.836;2024-01-30T05:02:45;0.30;99.90
6114;DHT22;3087;48.392;10.836;2024-01-30T05:05:11;0.20;99.90
6114;DHT22;3087;48.392;10.836;2024-01-30T05:07:38;0.20;99.90
6114;DHT22;3087;48.392;10.836;2024-01-30T05:10:04;0.20;99.90
6114;DHT22;3087;48.392;10.836;2024-01-30T05:12:30;0.20;99.90
6114;DHT22;3087;48.392;10.836;2024-01-30T05:14:55;0.30;99.90
6114;DHT22;3087;48.392;10.836;2024-01-30T05:17:21;0.30;99.90
6114;DHT22;3087;48.392;10.836;2024-01-30T05:19:46;0.40;99.90
6114;DHT22;3087;48.392;10.836;2024-01-30T05:22:12;0.40;99.90
6114;DHT22;3087;48.392;10.836;2024-01-30T05:24:41;0.50;99.90
6114;DHT22;3087;48.392;10.836;2024-01-30T05:27:08;0.60;99.90
6114;DHT22;3087;48.392;10.836;2024-01-30T05:29:33;0.60;99.90
6114;DHT22;3087;48.392;10.836;2024-01-30T05:31:59;0.50;99.90
6114;DHT22;3087;48.392;10.836;2024-01-30T05:34:24;0.40;99.90
6114;DHT22;3087;48.392;10.836;2024-01-30T05:36:50;0.30;99.90
6114;DHT22;3087;48.392;10.836;2024-01-30T05:39:15;0.40;99.90
6114;DHT22;3087;48.392;10.836;2024-01-30T05:41:41;0.40;99.90
6114;DHT22;3087;48.392;10.836;2024-01-30T05:44:06;0.40;99.90
6114;DHT22;3087;48.392;10.836;2024-01-30T05:46:35;0.50;99.90
6114;DHT22;3087;48.392;10.836;2024-01-30T05:49:00;0.40;99.90
6114;DHT22;3087;48.392;10.836;2024-01-30T05:51:26;0.50;99.90
6114;DHT22;3087;48.392;10.836;2024-01-30T05:53:51;0.40;99.90
6114;DHT22;3087;48.392;10.836;2024-01-30T05:56:17;0.30;99.90
6114;DHT22;3087;48.392;10.836;2024-01-30T05:58:42;0.20;99.90
6114;DHT22;3087;48.392;10.836;2024-01-30T06:01:08;0.10;99.90
6114;DHT22;3087;48.392;10.836;2024-01-30T06:03:34;0.10;99.90
6114;DHT22;3087;48.392;10.836;2024-01-30T06:06:00;0.10;99.90
6114;DHT22;3087;48.392;10.836;2024-01-30T06:08:26;0.10;99.90
6114;DHT22;3087;48.392;10.836;2024-01-30T06:10:52;0.10;99.90
6114;DHT22;3087;48.392;10.836;2024-01-30T06:13:18;0.20;99.90
6114;DHT22;3087;48.392;10.836;2024-01-30T06:15:43;0.00;99.90
6114;DHT22;3087;48.392;10.836;2024-01-30T06:18:09;0.10;99.90
6114;DHT22;3087;48.392;10.836;2024-01-30T06:20:34;0.20;99.90
6114;DHT22;3087;48.392;10.836;2024-01-30T06:23:00;0.20;99.90
6114;DHT22;3087;48.392;10.836;2024-01-30T06:25:26;0.20;99.90
6114;DHT22;3087;48.392;10.836;2024-01-30T06:27:52;0.20;99.90
6114;DHT22;3087;48.392;10.836;2024-01-30T06:30:18;0.20;99.90
6114;DHT22;3087;48.392;10.836;2024-01-30T06:32:43;0.20;99.90
6114;DHT22;3087;48.392;10.836;2024-01-30T06:35:09;0.30;99.90
6114;DHT22;3087;48.392;10.836;2024-01-30T06:37:36;0.30;99.90
6114;DHT22;3087;48.392;10.836;2024-01-30T06:40:01;0.30;99.90
6114;DHT22;3087;48.392;10.836;2024-01-30T06:42:30;0.40;99.90
6114;DHT22;3087;48.392;10.836;2024-01-30T06:44:55;0.50;99.90
6114;DHT22;3087;48.392;10.836;2024-01-30T06:47:21;0.60;99.90
6114;DHT22;3087;48.392;10.836;2024-01-30T06:49:46;0.60;99.90
6114;DHT22;3087;48.392;10.836;2024-01-30T06:52:12;0.50;99.90
6114;DHT22;3087;48.392;10.836;2024-01-30T06:54:37;0.40;99.90
6114;DHT22;3087;48.392;10.836;2024-01-30T06:57:03;0.40;99.90
6114;DHT22;3087;48.392;10.836;2024-01-30T06:59:29;0.40;99.90
6114;DHT22;3087;48.392;10.836;2024-01-30T07:01:54;0.40;99.90
6114;DHT22;3087;48.392;10.836;2024-01-30T07:04:20;0.30;99.90
6114;DHT22;3087;48.392;10.836;2024-01-30T07:06:45;0.20;99.90
6114;DHT22;3087;48.392;10.836;2024-01-30T07:09:12;0.20;99.90
6114;DHT22;3087;48.392;10.836;2024-01-30T07:11:39;0.20;99.90
6114;DHT22;3087;48.392;10.836;2024-01-30T07:14:04;0.30;99.90
6114;DHT22;3087;48.392;10.836;2024-01-30T07:16:30;0.30;99.90
6114;DHT22;3087;48.392;10.836;2024-01-30T07:18:56;0.30;99.90
6114;DHT22;3087;48.392;10.836;2024-01-30T07:21:22;0.30;99.90
6114;DHT22;3087;48.392;10.836;2024-01-30T07:23:53;0.30;99.90
6114;DHT22;3087;48.392;10.836;2024-01-30T07:26:19;0.30;99.90
6114;DHT22;3087;48.392;10.836;2024-01-30T07:28:44;0.40;99.90
6114;DHT22;3087;48.392;10.836;2024-01-30T07:31:10;0.50;99.90
6114;DHT22;3087;48.392;10.836;2024-01-30T07:33:36;0.60;99.90
6114;DHT22;3087;48.392;10.836;2024-01-30T07:36:01;0.60;99.90
6114;DHT22;3087;48.392;10.836;2024-01-30T07:38:27;0.60;99.90
6114;DHT22;3087;48.392;10.836;2024-01-30T07:40:52;0.70;99.90
6114;DHT22;3087;48.392;10.836;2024-01-30T07:43:18;1.20;99.90
6114;DHT22;3087;48.392;10.836;2024-01-30T07:45:45;0.80;99.90
6114;DHT22;3087;48.392;10.836;2024-01-30T07:48:11;0.90;99.90
6114;DHT22;3087;48.392;10.836;2024-01-30T07:50:37;1.10;99.90
6114;DHT22;3087;48.392;10.836;2024-01-30T07:53:03;1.30;99.90
6114;DHT22;3087;48.392;10.836;2024-01-30T07:55:28;1.40;99.90
6114;DHT22;3087;48.392;10.836;2024-01-30T07:57:56;1.60;99.90
6114;DHT22;3087;48.392;10.836;2024-01-30T08:00:22;1.80;99.90
6114;DHT22;3087;48.392;10.836;2024-01-30T08:02:48;1.90;99.90
6114;DHT22;3087;48.392;10.836;2024-01-30T08:05:13;1.90;99.90
6114;DHT22;3087;48.392;10.836;2024-01-30T08:07:41;1.90;99.90
6114;DHT22;3087;48.392;10.836;2024-01-30T08:10:07;1.90;99.90
6114;DHT22;3087;48.392;10.836;2024-01-30T08:12:33;2.10;99.90
6114;DHT22;3087;48.392;10.836;2024-01-30T08:14:58;2.20;99.90
6114;DHT22;3087;48.392;10.836;2024-01-30T08:17:24;2.40;99.90
6114;DHT22;3087;48.392;10.836;2024-01-30T08:19:49;2.50;99.90
6114;DHT22;3087;48.392;10.836;2024-01-30T08:22:15;2.70;99.90
6114;DHT22;3087;48.392;10.836;2024-01-30T08:24:41;2.80;99.90
6114;DHT22;3087;48.392;10.836;2024-01-30T08:27:07;2.90;99.90
6114;DHT22;3087;48.392;10.836;2024-01-30T08:29:35;3.00;99.90
6114;DHT22;3087;48.392;10.836;2024-01-30T08:32:01;3.10;99.90
6114;DHT22;3087;48.392;10.836;2024-01-30T08:34:26;3.20;99.90
6114;DHT22;3087;48.392;10.836;2024-01-30T08:36:52;3.30;99.90
6114;DHT22;3087;48.392;10.836;2024-01-30T08:39:19;3.30;99.90
6114;DHT22;3087;48.392;10.836;2024-01-30T08:41:45;3.40;99.90
6114;DHT22;3087;48.392;10.836;2024-01-30T08:44:10;3.50;99.90
6114;DHT22;3087;48.392;10.836;2024-01-30T08:46:36;3.50;99.90
6114;DHT22;3087;48.392;10.836;2024-01-30T08:49:02;3.40;99.90
6114;DHT22;3087;48.392;10.836;2024-01-30T08:51:29;3.60;99.90
6114;DHT22;3087;48.392;10.836;2024-01-30T08:53:55;3.70;99.90
6114;DHT22;3087;48.392;10.836;2024-01-30T08:56:21;5.30;99.90
6114;DHT22;3087;48.392;10.836;2024-01-30T08:58:46;4.10;99.90
6114;DHT22;3087;48.392;10.836;2024-01-30T09:01:12;4.00;99.90
6114;DHT22;3087;48.392;10.836;2024-01-30T09:03:37;4.20;99.90
6114;DHT22;3087;48.392;10.836;2024-01-30T09:06:11;4.30;99.90
6114;DHT22;3087;48.392;10.836;2024-01-30T09:08:37;4.40;99.90
6114;DHT22;3087;48.392;10.836;2024-01-30T09:11:12;4.50;99.90
6114;DHT22;3087;48.392;10.836;2024-01-30T09:13:38;4.70;99.90
6114;DHT22;3087;48.392;10.836;2024-01-30T09:16:04;4.80;99.90
6114;DHT22;3087;48.392;10.836;2024-01-30T09:18:29;4.90;99.90
6114;DHT22;3087;48.392;10.836;2024-01-30T09:20:55;5.10;99.90
6114;DHT22;3087;48.392;10.836;2024-01-30T09:23:20;5.20;99.90
6114;DHT22;3087;48.392;10.836;2024-01-30T09:25:47;5.30;99.90
6114;DHT22;3087;48.392;10.836;2024-01-30T09:28:13;5.30;99.90
6114;DHT22;3087;48.392;10.836;2024-01-30T09:30:38;5.50;99.90
6114;DHT22;3087;48.392;10.836;2024-01-30T09:33:04;5.60;99.90
6114;DHT22;3087;48.392;10.836;2024-01-30T09:35:30;5.70;99.90
6114;DHT22;3087;48.392;10.836;2024-01-30T09:37:56;5.80;99.90
6114;DHT22;3087;48.392;10.836;2024-01-30T09:40:22;6.00;99.90
6114;DHT22;3087;48.392;10.836;2024-01-30T09:42:50;6.20;99.90
6114;DHT22;3087;48.392;10.836;2024-01-30T09:45:17;6.30;99.90
6114;DHT22;3087;48.392;10.836;2024-01-30T09:47:44;6.50;99.90
6114;DHT22;3087;48.392;10.836;2024-01-30T09:50:14;7.50;99.90
6114;DHT22;3087;48.392;10.836;2024-01-30T09:52:40;8.50;99.90
6114;DHT22;3087;48.392;10.836;2024-01-30T09:55:07;10.10;99.90
6114;DHT22;3087;48.392;10.836;2024-01-30T09:57:36;10.50;99.90
6114;DHT22;3087;48.392;10.836;2024-01-30T10:00:05;11.30;99.90
6114;DHT22;3087;48.392;10.836;2024-01-30T10:02:34;12.00;99.90
6114;DHT22;3087;48.392;10.836;2024-01-30T10:05:00;12.80;99.50
6114;DHT22;3087;48.392;10.836;2024-01-30T10:07:26;13.20;98.80
6114;DHT22;3087;48.392;10.836;2024-01-30T10:09:53;13.50;97.80
6114;DHT22;3087;48.392;10.836;2024-01-30T10:12:18;14.00;97.40
6114;DHT22;3087;48.392;10.836;2024-01-30T10:14:44;14.50;97.20
6114;DHT22;3087;48.392;10.836;2024-01-30T10:17:11;14.00;95.90
6114;DHT22;3087;48.392;10.836;2024-01-30T10:19:41;13.60;95.90
6114;DHT22;3087;48.392;10.836;2024-01-30T10:22:07;13.00;96.20
6114;DHT22;3087;48.392;10.836;2024-01-30T10:24:36;12.50;96.20
6114;DHT22;3087;48.392;10.836;2024-01-30T10:27:02;12.20;96.60
6114;DHT22;3087;48.392;10.836;2024-01-30T10:29:28;11.80;96.70
6114;DHT22;3087;48.392;10.836;2024-01-30T10:32:04;11.70;97.00
6114;DHT22;3087;48.392;10.836;2024-01-30T10:34:31;11.70;97.40
6114;DHT22;3087;48.392;10.836;2024-01-30T10:37:09;12.00;97.50
6114;DHT22;3087;48.392;10.836;2024-01-30T10:39:41;12.40;97.00
6114;DHT22;3087;48.392;10.836;2024-01-30T10:42:17;12.40;96.10
6114;DHT22;3087;48.392;10.836;2024-01-30T10:45:14;12.30;96.50
6114;DHT22;3087;48.392;10.836;2024-01-30T10:47:50;12.10;96.60
6114;DHT22;3087;48.392;10.836;2024-01-30T10:50:16;12.40;96.90
6114;DHT22;3087;48.392;10.836;2024-01-30T10:52:42;13.30;97.00
6114;DHT22;3087;48.392;10.836;2024-01-30T10:55:08;14.00;96.60
6114;DHT22;3087;48.392;10.836;2024-01-30T10:57:37;14.40;95.90
6114;DHT22;3087;48.392;10.836;2024-01-30T11:00:13;14.50;95.60
6114;DHT22;3087;48.392;10.836;2024-01-30T11:02:43;14.10;95.40
6114;DHT22;3087;48.392;10.836;2024-01-30T11:05:09;14.30;95.90
6114;DHT22;3087;48.392;10.836;2024-01-30T11:07:35;14.80;95.30
6114;DHT22;3087;48.392;10.836;2024-01-30T11:10:04;15.40;95.50
6114;DHT22;3087;48.392;10.836;2024-01-30T11:12:31;15.60;95.20
6114;DHT22;3087;48.392;10.836;2024-01-30T11:15:15;15.20;95.20
6114;DHT22;3087;48.392;10.836;2024-01-30T11:17:51;15.30;95.10
6114;DHT22;3087;48.392;10.836;2024-01-30T11:20:21;16.00;94.90
6114;DHT22;3087;48.392;10.836;2024-01-30T11:22:48;16.30;95.10
6114;DHT22;3087;48.392;10.836;2024-01-30T11:25:15;16.30;94.00
6114;DHT22;3087;48.392;10.836;2024-01-30T11:27:43;16.20;93.70
6114;DHT22;3087;48.392;10.836;2024-01-30T11:30:09;15.80;94.20
6114;DHT22;3087;48.392;10.836;2024-01-30T11:32:35;15.50;93.90
6114;DHT22;3087;48.392;10.836;2024-01-30T11:35:03;15.00;93.90
6114;DHT22;3087;48.392;10.836;2024-01-30T11:37:31;14.60;94.50
6114;DHT22;3087;48.392;10.836;2024-01-30T11:39:57;14.30;94.10
6114;DHT22;3087;48.392;10.836;2024-01-30T11:42:24;14.20;94.10
6114;DHT22;3087;48.392;10.836;2024-01-30T11:44:52;13.90;94.30
6114;DHT22;3087;48.392;10.836;2024-01-30T11:47:18;13.70;94.40
6114;DHT22;3087;48.392;10.836;2024-01-30T11:49:44;13.60;94.50
6114;DHT22;3087;48.392;10.836;2024-01-30T11:52:10;13.70;95.10
6114;DHT22;3087;48.392;10.836;2024-01-30T11:54:35;13.60;95.20
6114;DHT22;3087;48.392;10.836;2024-01-30T11:57:04;13.60;95.10
6114;DHT22;3087;48.392;10.836;2024-01-30T11:59:30;13.40;95.20
6114;DHT22;3087;48.392;10.836;2024-01-30T12:01:56;13.30;95.30
6114;DHT22;3087;48.392;10.836;2024-01-30T12:04:22;13.20;95.20
6114;DHT22;3087;48.392;10.836;2024-01-30T12:06:51;13.20;95.30
6114;DHT22;3087;48.392;10.836;2024-01-30T12:09:16;13.40;95.50
6114;DHT22;3087;48.392;10.836;2024-01-30T12:11:46;13.40;95.10
6114;DHT22;3087;48.392;10.836;2024-01-30T12:14:12;13.40;95.10
6114;DHT22;3087;48.392;10.836;2024-01-30T12:16:38;13.60;95.30
6114;DHT22;3087;48.392;10.836;2024-01-30T12:19:03;13.70;94.80
6114;DHT22;3087;48.392;10.836;2024-01-30T12:21:29;13.90;94.80
6114;DHT22;3087;48.392;10.836;2024-01-30T12:23:56;13.90;94.80
6114;DHT22;3087;48.392;10.836;2024-01-30T12:26:24;14.10;94.30
6114;DHT22;3087;48.392;10.836;2024-01-30T12:28:53;14.40;94.80
6114;DHT22;3087;48.392;10.836;2024-01-30T12:31:25;14.50;94.60
6114;DHT22;3087;48.392;10.836;2024-01-30T12:33:52;14.70;94.70
6114;DHT22;3087;48.392;10.836;2024-01-30T12:36:18;14.70;94.20
6114;DHT22;3087;48.392;10.836;2024-01-30T12:38:43;14.60;94.20
6114;DHT22;3087;48.392;10.836;2024-01-30T12:41:09;14.40;94.40
6114;DHT22;3087;48.392;10.836;2024-01-30T12:43:35;14.30;94.70
6114;DHT22;3087;48.392;10.836;2024-01-30T12:46:02;14.10;94.40
6114;DHT22;3087;48.392;10.836;2024-01-30T12:48:28;14.00;94.70
6114;DHT22;3087;48.392;10.836;2024-01-30T12:50:55;13.90;94.40
6114;DHT22;3087;48.392;10.836;2024-01-30T12:53:21;14.00;94.60
6114;DHT22;3087;48.392;10.836;2024-01-30T12:55:47;14.00;94.60
6114;DHT22;3087;48.392;10.836;2024-01-30T12:58:12;13.90;94.60
6114;DHT22;3087;48.392;10.836;2024-01-30T13:00:38;14.10;94.40
6114;DHT22;3087;48.392;10.836;2024-01-30T13:03:04;13.80;94.40
6114;DHT22;3087;48.392;10.836;2024-01-30T13:05:30;13.80;94.60
6114;DHT22;3087;48.392;10.836;2024-01-30T13:07:55;13.90;95.40
6114;DHT22;3087;48.392;10.836;2024-01-30T13:10:23;14.00;96.20
6114;DHT22;3087;48.392;10.836;2024-01-30T13:12:48;14.20;94.70
6114;DHT22;3087;48.392;10.836;2024-01-30T13:15:14;14.40;96.00
6114;DHT22;3087;48.392;10.836;2024-01-30T13:17:40;14.30;94.60
6114;DHT22;3087;48.392;10.836;2024-01-30T13:20:08;14.40;94.50
6114;DHT22;3087;48.392;10.836;2024-01-30T13:22:34;14.40;94.60
6114;DHT22;3087;48.392;10.836;2024-01-30T13:24:59;14.40;94.60
6114;DHT22;3087;48.392;10.836;2024-01-30T13:27:25;14.50;94.60
6114;DHT22;3087;48.392;10.836;2024-01-30T13:29:50;14.40;94.70
6114;DHT22;3087;48.392;10.836;2024-01-30T13:32:16;14.50;94.70
6114;DHT22;3087;48.392;10.836;2024-01-30T13:34:42;14.60;94.40
6114;DHT22;3087;48.392;10.836;2024-01-30T13:37:08;14.60;94.40
6114;DHT22;3087;48.392;10.836;2024-01-30T13:39:34;14.30;93.00
6114;DHT22;3087;48.392;10.836;2024-01-30T13:41:59;14.20;93.30
6114;DHT22;3087;48.392;10.836;2024-01-30T13:44:25;14.00;93.00
6114;DHT22;3087;48.392;10.836;2024-01-30T13:46:51;14.00;93.50
6114;DHT22;3087;48.392;10.836;2024-01-30T13:49:16;14.10;93.60
6114;DHT22;3087;48.392;10.836;2024-01-30T13:51:42;14.10;94.00
6114;DHT22;3087;48.392;10.836;2024-01-30T13:54:08;14.10;94.40
6114;DHT22;3087;48.392;10.836;2024-01-30T13:56:34;14.20;95.00
6114;DHT22;3087;48.392;10.836;2024-01-30T13:58:59;14.30;95.60
6114;DHT22;3087;48.392;10.836;2024-01-30T14:01:26;14.30;94.40
6114;DHT22;3087;48.392;10.836;2024-01-30T14:03:52;14.30;94.30
6114;DHT22;3087;48.392;10.836;2024-01-30T14:06:18;14.30;94.60
6114;DHT22;3087;48.392;10.836;2024-01-30T14:08:44;14.40;94.20
6114;DHT22;3087;48.392;10.836;2024-01-30T14:11:09;14.30;93.80
6114;DHT22;3087;48.392;10.836;2024-01-30T14:13:35;14.30;94.00
6114;DHT22;3087;48.392;10.836;2024-01-30T14:16:01;14.30;94.70
6114;DHT22;3087;48.392;10.836;2024-01-30T14:18:26;14.30;94.20
6114;DHT22;3087;48.392;10.836;2024-01-30T14:20:52;14.30;93.70
6114;DHT22;3087;48.392;10.836;2024-01-30T14:23:18;14.20;93.70
6114;DHT22;3087;48.392;10.836;2024-01-30T14:25:44;14.20;94.00
6114;DHT22;3087;48.392;10.836;2024-01-30T14:28:10;14.00;93.80
6114;DHT22;3087;48.392;10.836;2024-01-30T14:30:35;14.00;93.90
6114;DHT22;3087;48.392;10.836;2024-01-30T14:33:01;14.10;93.90
6114;DHT22;3087;48.392;10.836;2024-01-30T14:35:27;13.70;93.10
6114;DHT22;3087;48.392;10.836;2024-01-30T14:37:53;13.70;93.60
6114;DHT22;3087;48.392;10.836;2024-01-30T14:40:18;13.80;94.00
6114;DHT22;3087;48.392;10.836;2024-01-30T14:42:44;13.70;94.00
6114;DHT22;3087;48.392;10.836;2024-01-30T14:45:10;13.80;93.90
6114;DHT22;3087;48.392;10.836;2024-01-30T14:47:37;13.90;93.90
6114;DHT22;3087;48.392;10.836;2024-01-30T14:50:03;13.90;93.90
6114;DHT22;3087;48.392;10.836;2024-01-30T14:52:30;13.80;94.20
6114;DHT22;3087;48.392;10.836;2024-01-30T14:54:56;13.80;94.10
6114;DHT22;3087;48.392;10.836;2024-01-30T14:57:24;13.80;93.50
6114;DHT22;3087;48.392;10.836;2024-01-30T14:59:49;13.60;93.40
6114;DHT22;3087;48.392;10.836;2024-01-30T15:02:15;13.50;93.60
6114;DHT22;3087;48.392;10.836;2024-01-30T15:04:40;13.40;93.60
6114;DHT22;3087;48.392;10.836;2024-01-30T15:07:06;13.40;93.70
6114;DHT22;3087;48.392;10.836;2024-01-30T15:09:32;13.30;93.70
6114;DHT22;3087;48.392;10.836;2024-01-30T15:11:57;13.30;93.90
6114;DHT22;3087;48.392;10.836;2024-01-30T15:14:23;13.20;94.00
6114;DHT22;3087;48.392;10.836;2024-01-30T15:16:49;13.10;94.30
6114;DHT22;3087;48.392;10.836;2024-01-30T15:19:15;13.10;94.20
6114;DHT22;3087;48.392;10.836;2024-01-30T15:21:40;13.00;94.50
6114;DHT22;3087;48.392;10.836;2024-01-30T15:24:06;13.00;94.50
6114;DHT22;3087;48.392;10.836;2024-01-30T15:26:32;13.00;94.70
6114;DHT22;3087;48.392;10.836;2024-01-30T15:28:57;13.00;94.80
6114;DHT22;3087;48.392;10.836;2024-01-30T15:31:23;12.90;95.40
6114;DHT22;3087;48.392;10.836;2024-01-30T15:33:49;12.60;97.70
6114;DHT22;3087;48.392;10.836;2024-01-30T15:36:14;12.20;98.90
6114;DHT22;3087;48.392;10.836;2024-01-30T15:38:41;11.90;99.70
6114;DHT22;3087;48.392;10.836;2024-01-30T15:41:07;11.70;99.90
6114;DHT22;3087;48.392;10.836;2024-01-30T15:43:32;11.50;99.90
6114;DHT22;3087;48.392;10.836;2024-01-30T15:46:01;11.40;99.90
6114;DHT22;3087;48.392;10.836;2024-01-30T15:48:27;11.20;99.90